sensor_id;sensor_type;location;lat;lon;timestamp;P1;durP1;ratioP1;P2;durP2;ratioP2
11092;SDS011;5600;50.864;6.102;2023-06-22T00:02:09;142.00;;;8.85;;
11092;SDS011;5600;50.864;6.102;2023-06-22T00:05:10;108.13;;;7.63;;
11092;SDS011;5600;50.864;6.102;2023-06-22T00:08:11;98.35;;;6.85;;
11092;SDS011;5600;50.864;6.102;2023-06-22T00:11:12;82.45;;;7.57;;
11092;SDS011;5600;50.864;6.102;2023-06-22T00:14:13;93.05;;;7.45;;
11092;SDS011;5600;50.864;6.102;2023-06-22T00:17:14;83.65;;;6.65;;
11092;SDS011;5600;50.864;6.102;2023-06-22T00:20:15;124.45;;;7.60;;
11092;SDS011;5600;50.864;6.102;2023-06-22T00:23:18;103.35;;;7.55;;
11092;SDS011;5600;50.864;6.102;2023-06-22T00:26:19;89.90;;;7.07;;
11092;SDS011;5600;50.864;6.102;2023-06-22T00:29:20;93.20;;;7.60;;
11092;SDS011;5600;50.864;6.102;2023-06-22T00:32:21;119.78;;;8.15;;
11092;SDS011;5600;50.864;6.102;2023-06-22T00:35:23;104.10;;;7.85;;
11092;SDS011;5600;50.864;6.102;2023-06-22T00:38:28;91.75;;;7.45;;
11092;SDS011;5600;50.864;6.102;2023-06-22T00:41:29;96.97;;;7.07;;
11092;SDS011;5600;50.864;6.102;2023-06-22T00:44:31;90.25;;;7.45;;
11092;SDS011;5600;50.864;6.102;2023-06-22T00:47:32;100.65;;;7.80;;
11092;SDS011;5600;50.864;6.102;2023-06-22T00:50:34;129.57;;;8.23;;
11092;SDS011;5600;50.864;6.102;2023-06-22T00:53:35;121.47;;;8.57;;
11092;SDS011;5600;50.864;6.102;2023-06-22T00:56:37;105.53;;;7.78;;
11092;SDS011;5600;50.864;6.102;2023-06-22T00:59:39;110.60;;;8.27;;
11092;SDS011;5600;50.864;6.102;2023-06-22T01:02:40;105.47;;;7.97;;
11092;SDS011;5600;50.864;6.102;2023-06-22T01:05:41;115.63;;;8.23;;
11092;SDS011;5600;50.864;6.102;2023-06-22T01:08:44;101.65;;;7.82;;
11092;SDS011;5600;50.864;6.102;2023-06-22T01:11:53;148.70;;;8.98;;
11092;SDS011;5600;50.864;6.102;2023-06-22T01:14:58;116.07;;;7.50;;
11092;SDS011;5600;50.864;6.102;2023-06-22T01:18:03;111.88;;;7.75;;
11092;SDS011;5600;50.864;6.102;2023-06-22T01:21:05;115.07;;;8.25;;
11092;SDS011;5600;50.864;6.102;2023-06-22T01:30:46;154.40;;;9.20;;
11092;SDS011;5600;50.864;6.102;2023-06-22T01:33:54;148.25;;;9.40;;
11092;SDS011;5600;50.864;6.102;2023-06-22T01:36:56;130.55;;;8.68;;
11092;SDS011;5600;50.864;6.102;2023-06-22T01:39:58;118.00;;;8.52;;
11092;SDS011;5600;50.864;6.102;2023-06-22T01:43:00;117.47;;;8.35;;
11092;SDS011;5600;50.864;6.102;2023-06-22T01:46:02;104.65;;;8.07;;
11092;SDS011;5600;50.864;6.102;2023-06-22T01:49:03;121.68;;;8.18;;
11092;SDS011;5600;50.864;6.102;2023-06-22T01:52:05;93.60;;;7.28;;
11092;SDS011;5600;50.864;6.102;2023-06-22T01:55:06;103.20;;;7.57;;
11092;SDS011;5600;50.864;6.102;2023-06-22T01:58:08;100.20;;;7.15;;
11092;SDS011;5600;50.864;6.102;2023-06-22T02:01:10;114.75;;;7.45;;
11092;SDS011;5600;50.864;6.102;2023-06-22T02:04:13;129.70;;;7.75;;
11092;SDS011;5600;50.864;6.102;2023-06-22T02:07:15;94.70;;;6.85;;
11092;SDS011;5600;50.864;6.102;2023-06-22T02:10:18;96.97;;;7.15;;
11092;SDS011;5600;50.864;6.102;2023-06-22T02:13:20;85.32;;;6.75;;
11092;SDS011;5600;50.864;6.102;2023-06-22T02:16:22;103.90;;;7.47;;
11092;SDS011;5600;50.864;6.102;2023-06-22T02:19:23;103.80;;;7.88;;
11092;SDS011;5600;50.864;6.102;2023-06-22T02:22:26;141.63;;;8.75;;
11092;SDS011;5600;50.864;6.102;2023-06-22T02:25:27;98.57;;;7.90;;
11092;SDS011;5600;50.864;6.102;2023-06-22T02:28:28;110.07;;;8.18;;
11092;SDS011;5600;50.864;6.102;2023-06-22T02:31:29;86.57;;;7.15;;
11092;SDS011;5600;50.864;6.102;2023-06-22T02:34:31;96.78;;;7.88;;
11092;SDS011;5600;50.864;6.102;2023-06-22T02:37:34;78.28;;;7.13;;
11092;SDS011;5600;50.864;6.102;2023-06-22T02:40:38;119.80;;;9.40;;
11092;SDS011;5600;50.864;6.102;2023-06-22T02:43:39;120.47;;;8.75;;
11092;SDS011;5600;50.864;6.102;2023-06-22T02:46:40;121.50;;;9.88;;
11092;SDS011;5600;50.864;6.102;2023-06-22T02:49:41;151.57;;;11.82;;
11092;SDS011;5600;50.864;6.102;2023-06-22T02:52:45;159.75;;;11.13;;
11092;SDS011;5600;50.864;6.102;2023-06-22T02:55:46;139.82;;;11.73;;
11092;SDS011;5600;50.864;6.102;2023-06-22T02:58:48;150.25;;;11.68;;
11092;SDS011;5600;50.864;6.102;2023-06-22T03:01:49;175.38;;;12.68;;
11092;SDS011;5600;50.864;6.102;2023-06-22T03:04:55;96.95;;;11.05;;
11092;SDS011;5600;50.864;6.102;2023-06-22T03:07:56;93.07;;;10.50;;
11092;SDS011;5600;50.864;6.102;2023-06-22T03:10:58;110.43;;;11.13;;
11092;SDS011;5600;50.864;6.102;2023-06-22T03:13:59;110.63;;;11.27;;
11092;SDS011;5600;50.864;6.102;2023-06-22T03:17:00;127.13;;;11.77;;
11092;SDS011;5600;50.864;6.102;2023-06-22T03:20:03;140.50;;;11.57;;
11092;SDS011;5600;50.864;6.102;2023-06-22T03:23:09;103.93;;;11.23;;
11092;SDS011;5600;50.864;6.102;2023-06-22T03:26:11;147.00;;;13.07;;
11092;SDS011;5600;50.864;6.102;2023-06-22T03:29:13;104.43;;;11.75;;
11092;SDS011;5600;50.864;6.102;2023-06-22T03:32:14;117.68;;;11.25;;
11092;SDS011;5600;50.864;6.102;2023-06-22T03:35:16;154.38;;;13.05;;
11092;SDS011;5600;50.864;6.102;2023-06-22T03:38:17;100.97;;;10.40;;
11092;SDS011;5600;50.864;6.102;2023-06-22T03:41:18;100.25;;;10.63;;
11092;SDS011;5600;50.864;6.102;2023-06-22T03:44:20;107.80;;;11.48;;
11092;SDS011;5600;50.864;6.102;2023-06-22T03:47:22;97.72;;;12.02;;
11092;SDS011;5600;50.864;6.102;2023-06-22T03:50:23;122.28;;;12.25;;
11092;SDS011;5600;50.864;6.102;2023-06-22T03:53:24;108.43;;;12.20;;
11092;SDS011;5600;50.864;6.102;2023-06-22T03:56:25;105.60;;;11.68;;
11092;SDS011;5600;50.864;6.102;2023-06-22T03:59:26;113.15;;;12.45;;
11092;SDS011;5600;50.864;6.102;2023-06-22T04:02:27;123.28;;;12.35;;
11092;SDS011;5600;50.864;6.102;2023-06-22T04:05:28;102.32;;;11.65;;
11092;SDS011;5600;50.864;6.102;2023-06-22T04:08:29;130.18;;;10.60;;
11092;SDS011;5600;50.864;6.102;2023-06-22T04:11:30;120.20;;;12.15;;
11092;SDS011;5600;50.864;6.102;2023-06-22T04:14:31;107.80;;;10.40;;
11092;SDS011;5600;50.864;6.102;2023-06-22T04:17:32;112.22;;;10.88;;
11092;SDS011;5600;50.864;6.102;2023-06-22T04:20:33;114.68;;;10.85;;
11092;SDS011;5600;50.864;6.102;2023-06-22T04:23:35;142.60;;;12.50;;
11092;SDS011;5600;50.864;6.102;2023-06-22T04:26:36;104.32;;;11.60;;
11092;SDS011;5600;50.864;6.102;2023-06-22T04:29:37;140.52;;;12.60;;
11092;SDS011;5600;50.864;6.102;2023-06-22T04:32:44;159.70;;;12.70;;
11092;SDS011;5600;50.864;6.102;2023-06-22T04:35:45;110.30;;;9.82;;
11092;SDS011;5600;50.864;6.102;2023-06-22T04:38:46;105.82;;;9.35;;
11092;SDS011;5600;50.864;6.102;2023-06-22T04:41:48;174.60;;;15.02;;
11092;SDS011;5600;50.864;6.102;2023-06-22T04:44:49;154.85;;;12.25;;
11092;SDS011;5600;50.864;6.102;2023-06-22T04:47:50;137.25;;;11.80;;
11092;SDS011;5600;50.864;6.102;2023-06-22T04:50:51;146.27;;;13.70;;
11092;SDS011;5600;50.864;6.102;2023-06-22T04:53:52;133.32;;;13.02;;
11092;SDS011;5600;50.864;6.102;2023-06-22T04:57:04;103.25;;;11.38;;
11092;SDS011;5600;50.864;6.102;2023-06-22T05:00:09;121.82;;;10.45;;
11092;SDS011;5600;50.864;6.102;2023-06-22T05:03:17;173.85;;;13.60;;
11092;SDS011;5600;50.864;6.102;2023-06-22T05:06:18;125.97;;;11.63;;
11092;SDS011;5600;50.864;6.102;2023-06-22T05:09:20;98.07;;;11.05;;
11092;SDS011;5600;50.864;6.102;2023-06-22T05:12:21;160.15;;;12.00;;
11092;SDS011;5600;50.864;6.102;2023-06-22T05:15:22;119.50;;;10.77;;
11092;SDS011;5600;50.864;6.102;2023-06-22T05:18:30;101.63;;;9.50;;
11092;SDS011;5600;50.864;6.102;2023-06-22T05:21:31;102.82;;;10.10;;
11092;SDS011;5600;50.864;6.102;2023-06-22T05:24:32;122.00;;;10.30;;
11092;SDS011;5600;50.864;6.102;2023-06-22T05:27:33;125.25;;;9.95;;
11092;SDS011;5600;50.864;6.102;2023-06-22T05:30:39;109.00;;;11.57;;
11092;SDS011;5600;50.864;6.102;2023-06-22T05:33:43;89.70;;;10.32;;
11092;SDS011;5600;50.864;6.102;2023-06-22T05:36:44;128.60;;;11.93;;
11092;SDS011;5600;50.864;6.102;2023-06-22T05:39:45;136.98;;;13.23;;
11092;SDS011;5600;50.864;6.102;2023-06-22T05:42:47;97.03;;;11.88;;
11092;SDS011;5600;50.864;6.102;2023-06-22T05:45:48;121.57;;;11.13;;
11092;SDS011;5600;50.864;6.102;2023-06-22T05:48:49;80.20;;;8.95;;
11092;SDS011;5600;50.864;6.102;2023-06-22T05:51:50;105.82;;;12.88;;
11092;SDS011;5600;50.864;6.102;2023-06-22T05:54:51;123.15;;;12.90;;
11092;SDS011;5600;50.864;6.102;2023-06-22T05:57:52;148.27;;;13.77;;
11092;SDS011;5600;50.864;6.102;2023-06-22T06:00:53;130.57;;;12.95;;
11092;SDS011;5600;50.864;6.102;2023-06-22T06:03:54;138.93;;;13.93;;
11092;SDS011;5600;50.864;6.102;2023-06-22T06:06:55;137.52;;;12.98;;
11092;SDS011;5600;50.864;6.102;2023-06-22T06:09:57;172.10;;;12.82;;
11092;SDS011;5600;50.864;6.102;2023-06-22T06:12:58;117.72;;;11.90;;
11092;SDS011;5600;50.864;6.102;2023-06-22T06:15:59;121.97;;;12.15;;
11092;SDS011;5600;50.864;6.102;2023-06-22T06:19:01;184.68;;;14.20;;
11092;SDS011;5600;50.864;6.102;2023-06-22T06:22:02;120.72;;;13.35;;
11092;SDS011;5600;50.864;6.102;2023-06-22T06:25:03;117.80;;;10.43;;
11092;SDS011;5600;50.864;6.102;2023-06-22T06:28:04;125.10;;;13.00;;
11092;SDS011;5600;50.864;6.102;2023-06-22T06:31:05;147.82;;;14.13;;
11092;SDS011;5600;50.864;6.102;2023-06-22T06:34:08;135.18;;;14.40;;
11092;SDS011;5600;50.864;6.102;2023-06-22T06:37:09;136.43;;;13.70;;
11092;SDS011;5600;50.864;6.102;2023-06-22T06:40:11;126.18;;;14.05;;
11092;SDS011;5600;50.864;6.102;2023-06-22T06:43:12;157.65;;;15.23;;
11092;SDS011;5600;50.864;6.102;2023-06-22T06:46:13;132.30;;;14.23;;
11092;SDS011;5600;50.864;6.102;2023-06-22T06:49:14;119.70;;;13.20;;
11092;SDS011;5600;50.864;6.102;2023-06-22T06:52:15;132.68;;;12.98;;
11092;SDS011;5600;50.864;6.102;2023-06-22T06:55:17;103.90;;;13.27;;
11092;SDS011;5600;50.864;6.102;2023-06-22T06:58:19;116.78;;;13.13;;
11092;SDS011;5600;50.864;6.102;2023-06-22T07:01:20;97.47;;;12.60;;
11092;SDS011;5600;50.864;6.102;2023-06-22T07:04:21;111.80;;;13.23;;
11092;SDS011;5600;50.864;6.102;2023-06-22T07:07:22;146.30;;;14.18;;
11092;SDS011;5600;50.864;6.102;2023-06-22T07:10:23;109.68;;;12.63;;
11092;SDS011;5600;50.864;6.102;2023-06-22T07:13:25;99.80;;;10.57;;
11092;SDS011;5600;50.864;6.102;2023-06-22T07:16:26;90.72;;;12.98;;
11092;SDS011;5600;50.864;6.102;2023-06-22T07:19:28;80.85;;;11.40;;
11092;SDS011;5600;50.864;6.102;2023-06-22T07:22:29;156.13;;;13.55;;
11092;SDS011;5600;50.864;6.102;2023-06-22T07:25:30;104.47;;;12.68;;
11092;SDS011;5600;50.864;6.102;2023-06-22T07:28:32;76.65;;;11.88;;
11092;SDS011;5600;50.864;6.102;2023-06-22T07:31:37;109.07;;;12.70;;
11092;SDS011;5600;50.864;6.102;2023-06-22T07:34:40;86.88;;;11.40;;
11092;SDS011;5600;50.864;6.102;2023-06-22T07:37:41;107.80;;;11.20;;
11092;SDS011;5600;50.864;6.102;2023-06-22T07:40:42;84.35;;;11.80;;
11092;SDS011;5600;50.864;6.102;2023-06-22T07:43:44;73.38;;;8.73;;
11092;SDS011;5600;50.864;6.102;2023-06-22T07:46:45;79.22;;;11.43;;
11092;SDS011;5600;50.864;6.102;2023-06-22T07:49:46;79.82;;;11.07;;
11092;SDS011;5600;50.864;6.102;2023-06-22T07:52:47;68.93;;;9.60;;
11092;SDS011;5600;50.864;6.102;2023-06-22T07:55:49;91.85;;;10.88;;
11092;SDS011;5600;50.864;6.102;2023-06-22T07:58:50;89.43;;;10.85;;
11092;SDS011;5600;50.864;6.102;2023-06-22T08:01:51;81.03;;;10.75;;
11092;SDS011;5600;50.864;6.102;2023-06-22T08:04:52;75.78;;;9.60;;
11092;SDS011;5600;50.864;6.102;2023-06-22T08:07:57;98.85;;;11.73;;
11092;SDS011;5600;50.864;6.102;2023-06-22T08:10:58;80.53;;;10.52;;
11092;SDS011;5600;50.864;6.102;2023-06-22T08:13:59;101.25;;;11.20;;
11092;SDS011;5600;50.864;6.102;2023-06-22T08:17:01;117.80;;;12.63;;
11092;SDS011;5600;50.864;6.102;2023-06-22T08:20:02;106.63;;;11.95;;
11092;SDS011;5600;50.864;6.102;2023-06-22T08:23:09;163.70;;;13.68;;
11092;SDS011;5600;50.864;6.102;2023-06-22T08:26:10;104.25;;;13.10;;
11092;SDS011;5600;50.864;6.102;2023-06-22T08:29:11;96.80;;;12.73;;
11092;SDS011;5600;50.864;6.102;2023-06-22T08:32:12;102.88;;;11.77;;
11092;SDS011;5600;50.864;6.102;2023-06-22T08:35:13;136.63;;;13.95;;
11092;SDS011;5600;50.864;6.102;2023-06-22T08:38:14;70.72;;;11.35;;
11092;SDS011;5600;50.864;6.102;2023-06-22T08:41:18;89.72;;;12.18;;
11092;SDS011;5600;50.864;6.102;2023-06-22T08:44:19;99.53;;;13.27;;
11092;SDS011;5600;50.864;6.102;2023-06-22T08:47:21;104.65;;;12.23;;
11092;SDS011;5600;50.864;6.102;2023-06-22T08:50:22;87.65;;;13.30;;
11092;SDS011;5600;50.864;6.102;2023-06-22T08:53:24;82.70;;;11.60;;
11092;SDS011;5600;50.864;6.102;2023-06-22T08:56:25;94.28;;;11.85;;
11092;SDS011;5600;50.864;6.102;2023-06-22T08:59:26;113.25;;;13.90;;
11092;SDS011;5600;50.864;6.102;2023-06-22T09:02:27;136.80;;;13.68;;
11092;SDS011;5600;50.864;6.102;2023-06-22T09:05:31;108.18;;;12.07;;
11092;SDS011;5600;50.864;6.102;2023-06-22T09:08:32;100.28;;;12.43;;
11092;SDS011;5600;50.864;6.102;2023-06-22T09:11:34;111.93;;;12.43;;
11092;SDS011;5600;50.864;6.102;2023-06-22T09:14:35;106.93;;;12.80;;
11092;SDS011;5600;50.864;6.102;2023-06-22T09:17:36;99.53;;;12.40;;
11092;SDS011;5600;50.864;6.102;2023-06-22T09:20:37;93.07;;;12.38;;
11092;SDS011;5600;50.864;6.102;2023-06-22T09:23:38;145.13;;;13.80;;
11092;SDS011;5600;50.864;6.102;2023-06-22T09:26:39;99.13;;;13.07;;
11092;SDS011;5600;50.864;6.102;2023-06-22T09:29:40;128.48;;;15.13;;
11092;SDS011;5600;50.864;6.102;2023-06-22T09:32:41;128.07;;;14.13;;
11092;SDS011;5600;50.864;6.102;2023-06-22T09:35:43;130.73;;;14.50;;
11092;SDS011;5600;50.864;6.102;2023-06-22T09:38:44;119.57;;;14.60;;
11092;SDS011;5600;50.864;6.102;2023-06-22T09:41:45;115.95;;;15.77;;
11092;SDS011;5600;50.864;6.102;2023-06-22T09:44:47;143.52;;;14.65;;
11092;SDS011;5600;50.864;6.102;2023-06-22T09:47:48;163.75;;;16.35;;
11092;SDS011;5600;50.864;6.102;2023-06-22T09:50:49;86.30;;;12.50;;
11092;SDS011;5600;50.864;6.102;2023-06-22T09:53:50;97.32;;;12.20;;
11092;SDS011;5600;50.864;6.102;2023-06-22T09:56:52;93.72;;;12.23;;
11092;SDS011;5600;50.864;6.102;2023-06-22T09:59:53;140.90;;;12.60;;
11092;SDS011;5600;50.864;6.102;2023-06-22T10:02:54;135.32;;;12.55;;
11092;SDS011;5600;50.864;6.102;2023-06-22T10:05:55;105.25;;;12.02;;
11092;SDS011;5600;50.864;6.102;2023-06-22T10:08:56;150.18;;;11.93;;
11092;SDS011;5600;50.864;6.102;2023-06-22T10:11:57;125.45;;;13.82;;
11092;SDS011;5600;50.864;6.102;2023-06-22T10:14:58;116.78;;;11.32;;
11092;SDS011;5600;50.864;6.102;2023-06-22T10:17:59;157.00;;;12.65;;
11092;SDS011;5600;50.864;6.102;2023-06-22T10:21:00;124.25;;;14.18;;
11092;SDS011;5600;50.864;6.102;2023-06-22T10:24:02;120.40;;;11.40;;
11092;SDS011;5600;50.864;6.102;2023-06-22T10:27:06;135.15;;;15.75;;
11092;SDS011;5600;50.864;6.102;2023-06-22T10:30:08;215.45;;;16.27;;
11092;SDS011;5600;50.864;6.102;2023-06-22T10:33:09;142.80;;;15.18;;
11092;SDS011;5600;50.864;6.102;2023-06-22T10:36:10;140.20;;;17.05;;
11092;SDS011;5600;50.864;6.102;2023-06-22T10:39:12;164.43;;;17.02;;
11092;SDS011;5600;50.864;6.102;2023-06-22T10:42:13;144.55;;;19.52;;
11092;SDS011;5600;50.864;6.102;2023-06-22T10:45:14;138.73;;;19.77;;
11092;SDS011;5600;50.864;6.102;2023-06-22T10:48:15;115.20;;;20.05;;
11092;SDS011;5600;50.864;6.102;2023-06-22T10:51:16;146.88;;;20.52;;
11092;SDS011;5600;50.864;6.102;2023-06-22T10:54:17;120.22;;;19.55;;
11092;SDS011;5600;50.864;6.102;2023-06-22T10:57:19;123.20;;;19.80;;
11092;SDS011;5600;50.864;6.102;2023-06-22T11:00:20;57.20;;;17.92;;
11092;SDS011;5600;50.864;6.102;2023-06-22T11:03:21;91.68;;;21.17;;
11092;SDS011;5600;50.864;6.102;2023-06-22T11:06:22;75.28;;;22.35;;
11092;SDS011;5600;50.864;6.102;2023-06-22T11:09:23;131.23;;;20.92;;
11092;SDS011;5600;50.864;6.102;2023-06-22T11:12:24;158.48;;;23.17;;
11092;SDS011;5600;50.864;6.102;2023-06-22T11:15:25;82.15;;;21.27;;
11092;SDS011;5600;50.864;6.102;2023-06-22T11:18:26;90.93;;;21.35;;
11092;SDS011;5600;50.864;6.102;2023-06-22T11:21:27;87.55;;;19.02;;
11092;SDS011;5600;50.864;6.102;2023-06-22T11:24:28;85.35;;;21.77;;
11092;SDS011;5600;50.864;6.102;2023-06-22T11:27:29;92.28;;;22.13;;
11092;SDS011;5600;50.864;6.102;2023-06-22T11:30:31;100.93;;;20.67;;
11092;SDS011;5600;50.864;6.102;2023-06-22T11:33:32;105.20;;;20.48;;
11092;SDS011;5600;50.864;6.102;2023-06-22T11:36:33;95.05;;;18.90;;
11092;SDS011;5600;50.864;6.102;2023-06-22T11:39:35;86.88;;;17.40;;
11092;SDS011;5600;50.864;6.102;2023-06-22T11:42:36;142.73;;;21.55;;
11092;SDS011;5600;50.864;6.102;2023-06-22T11:45:37;98.10;;;18.92;;
11092;SDS011;5600;50.864;6.102;2023-06-22T11:48:38;78.78;;;16.52;;
11092;SDS011;5600;50.864;6.102;2023-06-22T11:51:39;82.32;;;17.15;;
11092;SDS011;5600;50.864;6.102;2023-06-22T11:54:40;82.03;;;15.43;;
11092;SDS011;5600;50.864;6.102;2023-06-22T11:57:52;67.97;;;16.80;;
11092;SDS011;5600;50.864;6.102;2023-06-22T12:00:54;89.32;;;16.98;;
11092;SDS011;5600;50.864;6.102;2023-06-22T12:03:55;89.18;;;15.70;;
11092;SDS011;5600;50.864;6.102;2023-06-22T12:06:56;84.63;;;15.40;;
11092;SDS011;5600;50.864;6.102;2023-06-22T12:09:58;85.65;;;13.75;;
11092;SDS011;5600;50.864;6.102;2023-06-22T12:12:59;78.90;;;12.75;;
11092;SDS011;5600;50.864;6.102;2023-06-22T12:16:00;86.80;;;14.73;;
11092;SDS011;5600;50.864;6.102;2023-06-22T12:19:02;80.72;;;13.90;;
11092;SDS011;5600;50.864;6.102;2023-06-22T12:22:03;76.13;;;14.25;;
11092;SDS011;5600;50.864;6.102;2023-06-22T12:25:04;87.43;;;13.40;;
11092;SDS011;5600;50.864;6.102;2023-06-22T12:28:05;133.90;;;13.43;;
11092;SDS011;5600;50.864;6.102;2023-06-22T12:31:06;83.57;;;13.43;;
11092;SDS011;5600;50.864;6.102;2023-06-22T12:34:07;97.07;;;13.35;;
11092;SDS011;5600;50.864;6.102;2023-06-22T12:37:09;114.38;;;13.95;;
11092;SDS011;5600;50.864;6.102;2023-06-22T12:40:10;56.45;;;11.45;;
11092;SDS011;5600;50.864;6.102;2023-06-22T12:43:12;115.97;;;14.43;;
11092;SDS011;5600;50.864;6.102;2023-06-22T12:46:13;109.85;;;13.90;;
11092;SDS011;5600;50.864;6.102;2023-06-22T12:49:14;133.98;;;14.60;;
11092;SDS011;5600;50.864;6.102;2023-06-22T12:52:17;118.15;;;14.23;;
11092;SDS011;5600;50.864;6.102;2023-06-22T12:55:19;137.32;;;16.13;;
11092;SDS011;5600;50.864;6.102;2023-06-22T12:58:20;120.45;;;15.25;;
11092;SDS011;5600;50.864;6.102;2023-06-22T13:01:21;110.72;;;15.10;;
11092;SDS011;5600;50.864;6.102;2023-06-22T13:04:23;136.25;;;16.15;;
11092;SDS011;5600;50.864;6.102;2023-06-22T13:07:24;90.95;;;13.68;;
11092;SDS011;5600;50.864;6.102;2023-06-22T13:10:25;106.35;;;15.82;;
11092;SDS011;5600;50.864;6.102;2023-06-22T13:13:27;108.72;;;16.45;;
11092;SDS011;5600;50.864;6.102;2023-06-22T13:16:28;145.80;;;22.25;;
11092;SDS011;5600;50.864;6.102;2023-06-22T13:19:29;159.63;;;22.65;;
11092;SDS011;5600;50.864;6.102;2023-06-22T13:22:33;147.07;;;19.30;;
11092;SDS011;5600;50.864;6.102;2023-06-22T13:25:39;136.05;;;19.75;;
11092;SDS011;5600;50.864;6.102;2023-06-22T13:28:41;129.65;;;20.20;;
11092;SDS011;5600;50.864;6.102;2023-06-22T13:31:42;158.85;;;22.10;;
11092;SDS011;5600;50.864;6.102;2023-06-22T13:34:44;168.93;;;23.38;;
11092;SDS011;5600;50.864;6.102;2023-06-22T13:37:45;155.88;;;23.42;;
11092;SDS011;5600;50.864;6.102;2023-06-22T13:40:46;129.02;;;21.83;;
11092;SDS011;5600;50.864;6.102;2023-06-22T13:43:47;157.82;;;21.77;;
11092;SDS011;5600;50.864;6.102;2023-06-22T13:46:49;187.15;;;23.83;;
11092;SDS011;5600;50.864;6.102;2023-06-22T13:49:51;139.75;;;22.40;;
11092;SDS011;5600;50.864;6.102;2023-06-22T13:52:52;157.30;;;22.65;;
11092;SDS011;5600;50.864;6.102;2023-06-22T13:55:53;241.38;;;26.40;;
11092;SDS011;5600;50.864;6.102;2023-06-22T13:58:54;138.27;;;22.52;;
11092;SDS011;5600;50.864;6.102;2023-06-22T14:01:56;140.10;;;23.63;;
11092;SDS011;5600;50.864;6.102;2023-06-22T14:04:57;148.10;;;22.83;;
11092;SDS011;5600;50.864;6.102;2023-06-22T14:07:58;129.90;;;23.27;;
11092;SDS011;5600;50.864;6.102;2023-06-22T14:10:59;131.10;;;22.70;;
11092;SDS011;5600;50.864;6.102;2023-06-22T14:14:00;143.30;;;22.98;;
11092;SDS011;5600;50.864;6.102;2023-06-22T14:17:01;178.80;;;24.45;;
11092;SDS011;5600;50.864;6.102;2023-06-22T14:20:03;131.48;;;20.95;;
11092;SDS011;5600;50.864;6.102;2023-06-22T14:23:05;162.68;;;22.63;;
11092;SDS011;5600;50.864;6.102;2023-06-22T14:26:06;154.18;;;22.80;;
11092;SDS011;5600;50.864;6.102;2023-06-22T14:29:07;146.82;;;21.90;;
11092;SDS011;5600;50.864;6.102;2023-06-22T14:32:08;149.70;;;24.00;;
11092;SDS011;5600;50.864;6.102;2023-06-22T14:35:09;217.98;;;26.73;;
11092;SDS011;5600;50.864;6.102;2023-06-22T14:38:10;155.82;;;27.60;;
11092;SDS011;5600;50.864;6.102;2023-06-22T14:41:11;171.32;;;29.27;;
11092;SDS011;5600;50.864;6.102;2023-06-22T14:44:15;139.57;;;29.30;;
11092;SDS011;5600;50.864;6.102;2023-06-22T14:47:16;154.48;;;32.35;;
11092;SDS011;5600;50.864;6.102;2023-06-22T14:50:18;168.95;;;33.17;;
11092;SDS011;5600;50.864;6.102;2023-06-22T14:53:21;182.75;;;35.90;;
11092;SDS011;5600;50.864;6.102;2023-06-22T14:56:23;151.30;;;34.22;;
11092;SDS011;5600;50.864;6.102;2023-06-22T14:59:24;189.80;;;38.45;;
11092;SDS011;5600;50.864;6.102;2023-06-22T15:02:25;237.88;;;39.28;;
11092;SDS011;5600;50.864;6.102;2023-06-22T15:05:26;172.77;;;38.33;;
11092;SDS011;5600;50.864;6.102;2023-06-22T15:08:27;169.70;;;38.65;;
11092;SDS011;5600;50.864;6.102;2023-06-22T15:11:28;162.90;;;39.13;;
11092;SDS011;5600;50.864;6.102;2023-06-22T15:14:29;203.15;;;38.90;;
11092;SDS011;5600;50.864;6.102;2023-06-22T15:17:30;175.25;;;41.05;;
11092;SDS011;5600;50.864;6.102;2023-06-22T15:20:32;170.25;;;32.08;;
11092;SDS011;5600;50.864;6.102;2023-06-22T15:23:33;185.05;;;15.98;;
11092;SDS011;5600;50.864;6.102;2023-06-22T15:26:35;190.63;;;35.90;;
11092;SDS011;5600;50.864;6.102;2023-06-22T15:29:36;263.63;;;41.08;;
11092;SDS011;5600;50.864;6.102;2023-06-22T15:32:38;221.23;;;39.17;;
11092;SDS011;5600;50.864;6.102;2023-06-22T15:35:39;204.63;;;36.25;;
11092;SDS011;5600;50.864;6.102;2023-06-22T15:38:40;191.80;;;34.53;;
11092;SDS011;5600;50.864;6.102;2023-06-22T15:41:41;241.50;;;39.90;;
11092;SDS011;5600;50.864;6.102;2023-06-22T15:44:42;158.27;;;37.30;;
11092;SDS011;5600;50.864;6.102;2023-06-22T15:47:43;155.43;;;34.50;;
11092;SDS011;5600;50.864;6.102;2023-06-22T15:50:44;186.52;;;36.35;;
11092;SDS011;5600;50.864;6.102;2023-06-22T15:53:45;208.30;;;38.97;;
11092;SDS011;5600;50.864;6.102;2023-06-22T15:56:46;143.88;;;35.55;;
11092;SDS011;5600;50.864;6.102;2023-06-22T15:59:48;144.23;;;34.28;;
11092;SDS011;5600;50.864;6.102;2023-06-22T16:02:49;208.75;;;37.95;;
11092;SDS011;5600;50.864;6.102;2023-06-22T16:05:50;174.48;;;32.20;;
11092;SDS011;5600;50.864;6.102;2023-06-22T16:08:51;162.73;;;32.00;;
11092;SDS011;5600;50.864;6.102;2023-06-22T16:11:53;180.82;;;32.70;;
11092;SDS011;5600;50.864;6.102;2023-06-22T16:14:54;150.20;;;30.00;;
11092;SDS011;5600;50.864;6.102;2023-06-22T16:17:55;166.68;;;32.08;;
11092;SDS011;5600;50.864;6.102;2023-06-22T16:20:56;135.98;;;30.05;;
11092;SDS011;5600;50.864;6.102;2023-06-22T16:23:57;131.80;;;30.30;;
11092;SDS011;5600;50.864;6.102;2023-06-22T16:26:58;126.80;;;32.22;;
11092;SDS011;5600;50.864;6.102;2023-06-22T16:29:59;139.02;;;31.70;;
11092;SDS011;5600;50.864;6.102;2023-06-22T16:33:00;236.50;;;33.17;;
11092;SDS011;5600;50.864;6.102;2023-06-22T16:36:02;118.18;;;27.55;;
11092;SDS011;5600;50.864;6.102;2023-06-22T16:39:03;103.97;;;25.88;;
11092;SDS011;5600;50.864;6.102;2023-06-22T16:42:04;114.38;;;26.38;;
11092;SDS011;5600;50.864;6.102;2023-06-22T16:45:06;125.25;;;27.48;;
11092;SDS011;5600;50.864;6.102;2023-06-22T16:48:07;127.32;;;25.65;;
11092;SDS011;5600;50.864;6.102;2023-06-22T16:51:09;121.78;;;22.60;;
11092;SDS011;5600;50.864;6.102;2023-06-22T16:54:11;112.82;;;22.63;;
11092;SDS011;5600;50.864;6.102;2023-06-22T16:57:12;101.57;;;25.83;;
11092;SDS011;5600;50.864;6.102;2023-06-22T17:00:14;113.07;;;25.63;;
11092;SDS011;5600;50.864;6.102;2023-06-22T17:03:17;112.60;;;24.60;;
11092;SDS011;5600;50.864;6.102;2023-06-22T17:06:24;120.80;;;20.58;;
11092;SDS011;5600;50.864;6.102;2023-06-22T17:09:26;127.47;;;18.55;;
11092;SDS011;5600;50.864;6.102;2023-06-22T17:12:27;130.75;;;18.60;;
11092;SDS011;5600;50.864;6.102;2023-06-22T17:15:29;137.40;;;19.20;;
11092;SDS011;5600;50.864;6.102;2023-06-22T17:18:32;165.48;;;17.17;;
11092;SDS011;5600;50.864;6.102;2023-06-22T17:21:33;152.45;;;19.15;;
11092;SDS011;5600;50.864;6.102;2023-06-22T17:24:35;114.55;;;16.95;;
11092;SDS011;5600;50.864;6.102;2023-06-22T17:27:36;97.13;;;17.38;;
11092;SDS011;5600;50.864;6.102;2023-06-22T17:30:37;108.05;;;17.58;;
11092;SDS011;5600;50.864;6.102;2023-06-22T17:33:38;94.07;;;16.60;;
11092;SDS011;5600;50.864;6.102;2023-06-22T17:36:43;81.18;;;15.20;;
11092;SDS011;5600;50.864;6.102;2023-06-22T17:39:44;100.35;;;15.77;;
11092;SDS011;5600;50.864;6.102;2023-06-22T17:43:05;84.90;;;15.70;;
11092;SDS011;5600;50.864;6.102;2023-06-22T17:46:07;123.82;;;16.90;;
11092;SDS011;5600;50.864;6.102;2023-06-22T17:49:08;106.60;;;16.88;;
11092;SDS011;5600;50.864;6.102;2023-06-22T17:52:17;127.55;;;15.38;;
11092;SDS011;5600;50.864;6.102;2023-06-22T17:55:25;99.95;;;13.07;;